Time;durP1;ratioP1;P1;durP2;ratioP2;P2;SDS_P1;SDS_P2;PMS_P1;PMS_P2;Temp;Humidity;BMP_temperature;BMP_pressure;BME280_temperature;BME280_humidity;BME280_pressure;Samples;Min_cycle;Max_cycle;Signal;HPM_P1;HPM_P2
2021/07/26 00:01:26;;;;;;;4.30;2.35;;;;;;;22.49;38.43;100511.91;3578990;40;20052;-77
2021/07/26 00:03:54;;;;;;;3.50;2.10;;;;;;;22.47;38.29;100512.16;3578488;40;20118;-79
2021/07/26 00:06:22;;;;;;;3.90;2.05;;;;;;;22.45;38.16;100514.31;3578803;40;20048;-79
2021/07/26 00:08:50;;;;;;;3.38;2.05;;;;;;;22.43;38.52;100499.72;3581168;40;20140;-79
2021/07/26 00:11:20;;;;;;;3.42;1.70;;;;;;;22.44;38.43;100501.44;3578891;40;20044;-79
2021/07/26 00:13:48;;;;;;;4.07;2.25;;;;;;;22.40;38.22;100500.16;3593676;39;20037;-79
2021/07/26 00:16:16;;;;;;;3.92;2.10;;;;;;;22.40;38.58;100499.28;3575046;40;20052;-78
2021/07/26 00:18:44;;;;;;;3.20;1.80;;;;;;;22.38;38.42;100507.03;3583946;40;20072;-79
2021/07/26 00:21:12;;;;;;;3.83;2.10;;;;;;;22.36;38.44;100509.19;3579763;40;20051;-79
2021/07/26 00:23:40;;;;;;;3.47;1.98;;;;;;;22.34;38.08;100498.25;3579727;40;20352;-81
2021/07/26 00:26:08;;;;;;;3.63;1.77;;;;;;;22.32;38.13;100502.31;3579943;40;20049;-80
2021/07/26 00:28:39;;;;;;;3.40;2.15;;;;;;;22.32;38.09;100503.19;3579600;40;20138;-80
2021/07/26 00:31:07;;;;;;;3.40;1.90;;;;;;;22.30;38.20;100507.28;3579435;40;20076;-80
2021/07/26 00:34:19;;;;;;;4.05;1.90;;;;;;;22.26;38.46;100511.56;3583458;40;20382;-79
2021/07/26 00:36:49;;;;;;;4.90;1.90;;;;;;;22.22;38.34;100513.09;3574898;40;20045;-79
2021/07/26 00:39:19;;;;;;;2.58;1.40;;;;;;;22.22;38.16;100505.59;3579882;40;20036;-79
2021/07/26 00:41:48;;;;;;;2.95;1.55;;;;;;;22.21;38.41;100512.22;3578317;40;20084;-79
2021/07/26 00:44:19;;;;;;;3.83;1.85;;;;;;;22.22;38.19;100504.72;3579907;40;20025;-79
2021/07/26 00:46:48;;;;;;;3.15;1.52;;;;;;;22.18;38.38;100496.75;3578924;40;20053;-79
2021/07/26 00:49:18;;;;;;;3.63;2.00;;;;;;;22.17;38.22;100492.25;3586741;40;20053;-79
2021/07/26 00:51:48;;;;;;;3.65;1.88;;;;;;;22.15;38.47;100493.53;3588618;40;20141;-79
2021/07/26 00:54:19;;;;;;;4.05;1.65;;;;;;;22.13;38.78;100491.00;3589235;40;20456;-79
2021/07/26 00:56:49;;;;;;;3.95;2.05;;;;;;;22.11;38.17;100486.69;3588536;40;20055;-79
2021/07/26 00:59:18;;;;;;;3.47;2.10;;;;;;;22.10;38.63;100484.97;3582376;40;20430;-79
2021/07/26 01:01:47;;;;;;;3.65;2.35;;;;;;;22.07;38.76;100491.84;3578831;40;20138;-79
2021/07/26 01:04:15;;;;;;;4.00;2.25;;;;;;;22.05;38.90;100494.00;3587974;40;20500;-78
2021/07/26 01:06:43;;;;;;;3.80;2.00;;;;;;;22.03;38.66;100487.78;3598086;40;20044;-79
2021/07/26 01:09:12;;;;;;;5.82;2.50;;;;;;;22.01;38.73;100480.72;3599560;40;20114;-79
2021/07/26 01:11:40;;;;;;;3.92;2.60;;;;;;;21.99;38.93;100494.84;3598737;39;20298;-79
2021/07/26 01:14:08;;;;;;;4.47;2.38;;;;;;;21.98;39.30;100490.38;3599326;40;20384;-79
2021/07/26 01:16:38;;;;;;;5.25;2.25;;;;;;;21.98;38.51;100500.66;3597725;40;20044;-80
2021/07/26 01:19:06;;;;;;;3.45;2.17;;;;;;;21.94;38.95;100500.22;3592281;39;20040;-79
2021/07/26 01:21:35;;;;;;;4.55;2.40;;;;;;;21.94;39.17;100503.00;3588743;40;20312;-79
2021/07/26 01:24:04;;;;;;;4.60;2.25;;;;;;;21.90;39.26;100498.09;3596570;40;20375;-79
2021/07/26 01:26:33;;;;;;;3.25;1.98;;;;;;;21.87;39.50;100492.94;3588589;40;20131;-79
2021/07/26 01:29:03;;;;;;;5.72;2.38;;;;;;;21.86;39.57;100494.00;3587908;40;20056;-79
2021/07/26 01:31:32;;;;;;;3.88;2.30;;;;;;;21.81;39.24;100495.53;3579315;40;20045;-79
2021/07/26 01:34:00;;;;;;;3.80;2.38;;;;;;;21.79;39.01;100494.03;3594584;40;20459;-79
2021/07/26 01:36:28;;;;;;;4.50;2.42;;;;;;;21.76;38.98;100491.66;3597420;40;20313;-79
2021/07/26 01:38:58;;;;;;;3.92;2.20;;;;;;;21.76;39.24;100495.31;3599108;40;20064;-79
2021/07/26 01:41:30;;;;;;;3.55;2.05;;;;;;;21.73;39.59;100492.09;3595716;39;20191;-81
2021/07/26 01:44:06;;;;;;;3.75;2.22;;;;;;;21.69;39.06;100502.81;3589777;40;20041;-79
2021/07/26 01:47:01;;;;;;;4.63;1.98;;;;;;;21.69;39.50;100493.59;3582921;40;20391;-78
2021/07/26 01:49:39;;;;;;;4.47;2.25;;;;;;;21.68;39.34;100495.50;3579159;40;20037;-79
2021/07/26 01:52:07;;;;;;;4.20;2.10;;;;;;;21.66;39.49;100497.66;3578442;40;20072;-79
2021/07/26 01:54:37;;;;;;;3.78;2.10;;;;;;;21.66;39.14;100496.78;3578644;40;20037;-79
2021/07/26 01:57:06;;;;;;;3.83;2.22;;;;;;;21.63;39.35;100489.75;3578025;40;20119;-78
2021/07/26 01:59:34;;;;;;;3.13;2.05;;;;;;;21.61;39.74;100496.59;3578507;40;20053;-80
2021/07/26 02:02:02;;;;;;;3.78;2.10;;;;;;;21.61;39.56;100496.59;3576928;40;20107;-79
2021/07/26 02:04:30;;;;;;;4.03;2.20;;;;;;;21.58;39.77;100491.44;3581335;40;20053;-79
2021/07/26 02:06:58;;;;;;;3.65;2.10;;;;;;;21.57;39.51;100498.09;3584497;39;20055;-79
2021/07/26 02:09:26;;;;;;;3.38;1.98;;;;;;;21.55;39.28;100500.19;3591851;39;20282;-78
2021/07/26 02:11:55;;;;;;;3.78;2.08;;;;;;;21.56;39.60;100494.47;3588258;40;20052;-79
2021/07/26 02:14:23;;;;;;;3.58;2.00;;;;;;;21.54;39.22;100496.56;3589348;40;20040;-78
2021/07/26 02:16:53;;;;;;;2.80;1.80;;;;;;;21.53;39.75;100497.63;3585239;40;20405;-81
2021/07/26 02:19:21;;;;;;;5.15;2.20;;;;;;;21.51;39.75;100501.69;3589930;40;20502;-79
2021/07/26 02:21:51;;;;;;;5.22;1.90;;;;;;;21.49;39.60;100504.66;3589718;40;20044;-79
2021/07/26 02:24:19;;;;;;;3.25;1.90;;;;;;;21.48;39.74;100503.00;3590094;40;20075;-79
2021/07/26 02:26:47;;;;;;;4.65;2.03;;;;;;;21.47;40.00;100508.75;3588314;40;20393;-79
2021/07/26 02:29:16;;;;;;;3.28;2.00;;;;;;;21.48;39.87;100511.34;3590621;40;20033;-79
2021/07/26 02:31:44;;;;;;;3.90;2.13;;;;;;;21.45;39.87;100520.97;3597707;39;20132;-79
2021/07/26 02:34:12;;;;;;;4.10;2.08;;;;;;;21.44;39.57;100519.25;3590195;40;20048;-79
2021/07/26 02:36:40;;;;;;;4.38;2.08;;;;;;;21.42;40.00;100518.59;3589527;40;20040;-79
2021/07/26 02:39:08;;;;;;;3.50;1.88;;;;;;;21.41;39.70;100516.00;3589999;40;20032;-78
2021/07/26 02:41:36;;;;;;;3.50;2.10;;;;;;;21.40;39.93;100517.97;3589780;40;20389;-78
2021/07/26 02:44:05;;;;;;;3.97;2.33;;;;;;;21.39;39.95;100521.81;3590146;40;20033;-79
2021/07/26 02:46:34;;;;;;;3.72;2.35;;;;;;;21.39;40.25;100520.94;3589502;40;20057;-79
2021/07/26 02:49:02;;;;;;;3.97;2.13;;;;;;;21.35;40.14;100526.06;3586484;40;20140;-78
2021/07/26 02:51:30;;;;;;;3.65;2.00;;;;;;;21.34;39.84;100529.06;3580101;40;20130;-79
2021/07/26 02:53:58;;;;;;;3.58;2.13;;;;;;;21.32;40.37;100531.22;3579094;40;20025;-79
2021/07/26 02:56:26;;;;;;;3.70;2.17;;;;;;;21.32;39.92;100534.84;3566554;40;20051;-79
2021/07/26 02:58:54;;;;;;;3.78;2.00;;;;;;;21.31;39.82;100538.69;3578995;40;20126;-79
2021/07/26 03:01:22;;;;;;;3.90;2.05;;;;;;;21.30;40.36;100534.19;3578619;40;20049;-80
2021/07/26 03:03:52;;;;;;;4.03;2.10;;;;;;;21.31;40.24;100540.63;3588074;40;20321;-79
2021/07/26 03:06:21;;;;;;;3.60;1.95;;;;;;;21.28;40.47;100539.13;3589108;40;20106;-79
2021/07/26 03:08:49;;;;;;;3.80;2.30;;;;;;;21.26;40.33;100545.94;3580049;40;20059;-79
2021/07/26 03:11:17;;;;;;;4.13;2.08;;;;;;;21.25;40.28;100542.31;3579536;40;20033;-79
2021/07/26 03:13:45;;;;;;;3.85;2.30;;;;;;;21.25;40.80;100547.00;3579139;40;20081;-78
2021/07/26 03:16:15;;;;;;;4.13;2.20;;;;;;;21.25;40.55;100547.88;3582609;40;20102;-79
2021/07/26 03:18:43;;;;;;;4.78;2.30;;;;;;;21.22;40.86;100547.44;3590489;40;20069;-79
2021/07/26 03:21:17;;;;;;;4.90;2.38;;;;;;;21.26;40.90;100551.50;3589405;40;20045;-79
2021/07/26 03:23:45;;;;;;;4.55;2.05;;;;;;;21.21;40.71;100551.28;3590121;40;20037;-79
2021/07/26 03:26:14;;;;;;;4.00;2.40;;;;;;;21.20;40.94;100553.22;3588780;40;20049;-78
2021/07/26 03:28:42;;;;;;;3.67;2.15;;;;;;;21.19;40.83;100553.41;3581364;40;20122;-79
2021/07/26 03:31:10;;;;;;;3.85;1.92;;;;;;;21.18;40.56;100547.00;3593379;40;20099;-78
2021/07/26 03:33:38;;;;;;;3.78;2.05;;;;;;;21.18;40.82;100543.34;3590866;40;21729;-79
2021/07/26 03:36:07;;;;;;;3.95;2.10;;;;;;;21.18;40.92;100547.00;3590882;40;20098;-78
2021/07/26 03:38:36;;;;;;;3.50;2.05;;;;;;;21.18;40.58;100552.56;3598446;39;20044;-79
2021/07/26 03:41:04;;;;;;;3.90;2.10;;;;;;;21.17;40.62;100549.97;3577371;40;20043;-79
2021/07/26 03:43:32;;;;;;;4.65;2.08;;;;;;;21.16;40.60;100549.13;3595074;39;20109;-79
2021/07/26 03:46:00;;;;;;;3.60;2.20;;;;;;;21.15;40.79;100547.44;3589604;40;20056;-79
2021/07/26 03:48:28;;;;;;;3.47;2.05;;;;;;;21.16;40.74;100542.72;3587322;40;20032;-78
2021/07/26 03:50:56;;;;;;;3.85;2.33;;;;;;;21.15;40.67;100541.88;3589215;40;20040;-79
2021/07/26 03:53:24;;;;;;;3.35;1.98;;;;;;;21.15;40.83;100555.78;3579736;40;20029;-79
2021/07/26 03:55:53;;;;;;;3.70;2.15;;;;;;;21.17;40.54;100550.84;3589011;40;20080;-78
2021/07/26 03:58:22;;;;;;;4.00;2.15;;;;;;;21.14;40.82;100556.84;3589467;40;20033;-79
2021/07/26 04:00:50;;;;;;;3.35;1.95;;;;;;;21.14;40.84;100559.63;3576944;40;20048;-79
2021/07/26 04:03:23;;;;;;;4.13;2.00;;;;;;;21.14;40.78;100558.75;3595486;39;20040;-78
2021/07/26 04:05:56;;;;;;;3.50;2.10;;;;;;;21.13;41.17;100554.25;3588830;40;20041;-78
2021/07/26 04:08:26;;;;;;;3.70;2.10;;;;;;;21.13;40.88;100555.13;3589553;40;20375;-78
2021/07/26 04:11:02;;;;;;;6.18;2.20;;;;;;;21.15;41.17;100558.56;3582211;40;20060;-78
2021/07/26 04:13:33;;;;;;;3.70;2.10;;;;;;;21.11;40.69;100561.94;3589463;40;20064;-78
2021/07/26 04:16:01;;;;;;;3.80;2.22;;;;;;;21.08;40.61;100561.28;3586093;40;20122;-78
2021/07/26 04:18:29;;;;;;;5.40;2.25;;;;;;;21.08;41.09;100559.59;3583435;40;20045;-78
2021/07/26 04:20:58;;;;;;;4.50;2.28;;;;;;;21.06;41.04;100566.22;3588466;40;20052;-78
2021/07/26 04:23:26;;;;;;;4.00;2.10;;;;;;;21.03;40.89;100563.84;3590742;40;20029;-78
2021/07/26 04:25:54;;;;;;;5.82;2.30;;;;;;;21.01;41.19;100570.69;3565135;40;20496;-78
2021/07/26 04:28:23;;;;;;;3.58;2.08;;;;;;;21.02;41.04;100572.41;3594395;39;20481;-80
2021/07/26 04:30:51;;;;;;;3.97;2.47;;;;;;;20.97;41.22;100563.84;3587306;40;20145;-79
2021/07/26 04:33:19;;;;;;;4.53;2.40;;;;;;;20.97;41.63;100574.97;3583507;40;20041;-78
2021/07/26 04:35:47;;;;;;;4.80;2.30;;;;;;;20.95;41.34;100560.41;3586399;40;20035;-78
2021/07/26 04:38:15;;;;;;;4.22;2.50;;;;;;;20.93;41.45;100568.94;3589499;40;20033;-79
2021/07/26 04:41:22;;;;;;;4.63;2.30;;;;;;;20.94;41.63;100572.56;3583042;40;20036;-79
2021/07/26 04:43:55;;;;;;;3.90;2.22;;;;;;;20.88;41.47;100567.81;3583571;40;20036;-79
2021/07/26 04:46:26;;;;;;;4.38;2.10;;;;;;;20.90;42.12;100571.28;3583096;40;20028;-80
2021/07/26 04:48:55;;;;;;;3.90;2.20;;;;;;;20.85;41.50;100574.66;3584083;40;20048;-79
2021/07/26 04:51:23;;;;;;;3.83;2.15;;;;;;;20.87;41.41;100572.53;3599169;39;20408;-80
2021/07/26 04:53:52;;;;;;;3.40;1.98;;;;;;;20.90;41.76;100574.06;3589233;40;20045;-80
2021/07/26 04:56:20;;;;;;;3.75;1.98;;;;;;;20.88;41.98;100574.25;3587908;40;20044;-79
2021/07/26 04:58:48;;;;;;;3.65;2.10;;;;;;;20.90;41.60;100582.41;3589693;40;20037;-79
2021/07/26 05:01:17;;;;;;;4.28;2.17;;;;;;;20.95;41.68;100585.44;3592074;39;20075;-77
2021/07/26 05:03:46;;;;;;;3.72;1.98;;;;;;;20.94;42.00;100587.34;3599716;39;20029;-80
2021/07/26 05:06:14;;;;;;;4.55;2.40;;;;;;;20.97;41.54;100591.66;3595246;40;20126;-79
2021/07/26 05:08:42;;;;;;;3.60;2.08;;;;;;;20.99;41.89;100597.88;3591659;40;20074;-80
2021/07/26 05:11:09;;;;;;;8.85;2.40;;;;;;;21.00;41.36;100597.63;3588810;40;20045;-79
2021/07/26 05:13:37;;;;;;;7.82;2.17;;;;;;;21.03;41.80;100593.59;3585224;40;20118;-79
2021/07/26 05:16:05;;;;;;;4.93;2.38;;;;;;;21.05;41.64;100597.88;3583820;40;20126;-79
2021/07/26 05:18:35;;;;;;;4.22;2.10;;;;;;;21.08;41.91;100598.53;3582594;40;20321;-79
2021/07/26 05:21:03;;;;;;;4.05;2.20;;;;;;;21.09;41.83;100606.66;3577658;40;20045;-78
2021/07/26 05:23:31;;;;;;;3.42;2.17;;;;;;;21.10;41.80;100599.16;3579043;40;20032;-78
2021/07/26 05:25:59;;;;;;;6.45;2.15;;;;;;;21.11;41.79;100596.19;3588215;40;20064;-80
2021/07/26 05:28:27;;;;;;;4.97;2.83;;;;;;;21.13;41.62;100588.50;3591864;40;20051;-79
2021/07/26 05:30:55;;;;;;;4.13;1.98;;;;;;;21.15;42.10;100594.72;3581587;40;20278;-79
2021/07/26 05:33:23;;;;;;;3.47;1.90;;;;;;;21.17;41.79;100600.06;3579823;40;20081;-79
2021/07/26 05:35:53;;;;;;;4.57;2.10;;;;;;;21.21;42.07;100598.59;3588649;40;20057;-79
2021/07/26 05:38:21;;;;;;;3.45;2.10;;;;;;;21.20;41.80;100597.72;3579349;40;20618;-79
2021/07/26 05:40:49;;;;;;;4.43;2.13;;;;;;;21.23;41.86;100604.81;3583761;40;20341;-79
2021/07/26 05:43:17;;;;;;;3.53;2.20;;;;;;;21.25;42.32;100599.88;3589804;40;20312;-80
2021/07/26 05:45:45;;;;;;;3.42;2.17;;;;;;;21.25;41.59;100600.72;3589656;40;20056;-78
2021/07/26 05:48:13;;;;;;;3.28;1.88;;;;;;;21.28;42.17;100605.03;3590846;40;20365;-78
2021/07/26 05:50:41;;;;;;;3.90;2.00;;;;;;;21.30;41.67;100603.75;3591493;39;20064;-78
2021/07/26 05:53:10;;;;;;;3.88;2.10;;;;;;;21.33;41.81;100603.31;3591247;40;20048;-79
2021/07/26 05:55:39;;;;;;;3.67;1.92;;;;;;;21.33;42.30;100608.88;3599729;39;20028;-79
2021/07/26 05:58:07;;;;;;;3.33;1.90;;;;;;;21.35;41.97;100601.19;3581647;40;20037;-81
2021/07/26 06:00:41;;;;;;;4.20;2.05;;;;;;;21.38;42.16;100602.72;3580749;39;20040;-80
2021/07/26 06:03:09;;;;;;;3.70;1.70;;;;;;;21.37;41.89;100599.06;3580954;40;20040;-81
2021/07/26 06:05:38;;;;;;;3.90;2.10;;;;;;;21.41;42.35;100603.13;3567289;40;20037;-79
2021/07/26 06:08:06;;;;;;;4.75;2.20;;;;;;;21.45;42.36;100598.00;3586907;39;20029;-79
2021/07/26 06:10:36;;;;;;;4.22;2.00;;;;;;;21.51;42.19;100602.72;3584835;40;20134;-80
2021/07/26 06:13:05;;;;;;;3.78;2.17;;;;;;;21.54;42.77;100593.97;3596298;40;20069;-83
2021/07/26 06:15:33;;;;;;;3.95;2.28;;;;;;;21.59;42.70;100591.44;3599491;39;20072;-80
2021/07/26 06:18:02;;;;;;;3.15;1.92;;;;;;;21.68;42.90;100595.75;3600926;40;20113;-81
2021/07/26 06:20:31;;;;;;;3.60;1.95;;;;;;;21.73;42.58;100592.34;3594239;39;20027;-81
2021/07/26 06:23:00;;;;;;;3.55;2.20;;;;;;;21.82;42.96;100594.69;3599803;40;20078;-83
2021/07/26 06:25:28;;;;;;;3.83;2.13;;;;;;;21.92;42.78;100590.63;3598109;39;20136;-81
2021/07/26 06:27:58;;;;;;;4.88;2.25;;;;;;;22.04;42.24;100591.72;3604503;39;20113;-79
2021/07/26 06:30:26;;;;;;;4.03;2.17;;;;;;;22.10;42.00;100594.47;3596546;40;20033;-81
2021/07/26 06:32:54;;;;;;;3.58;2.05;;;;;;;22.18;42.03;100597.06;3573809;40;20372;-79
2021/07/26 06:35:22;;;;;;;3.97;2.10;;;;;;;22.26;41.67;100601.56;3579525;40;20037;-79
2021/07/26 06:37:50;;;;;;;3.17;1.85;;;;;;;22.32;41.66;100608.22;3590024;40;20049;-83
2021/07/26 06:40:18;;;;;;;4.20;2.20;;;;;;;22.37;41.50;100611.22;3591315;40;20044;-82
2021/07/26 06:42:46;;;;;;;4.03;2.38;;;;;;;22.41;41.64;100616.13;3589982;40;20048;-83
2021/07/26 06:45:15;;;;;;;4.05;1.92;;;;;;;22.47;41.45;100611.66;3590552;40;20020;-80
2021/07/26 06:47:44;;;;;;;4.43;2.40;;;;;;;22.48;41.51;100604.97;3590361;40;20084;-81
2021/07/26 06:50:13;;;;;;;4.30;2.10;;;;;;;22.52;41.18;100623.84;3591381;40;20036;-79
2021/07/26 06:52:40;;;;;;;3.80;2.20;;;;;;;22.56;41.60;100621.50;3577930;40;20040;-79
2021/07/26 06:55:09;;;;;;;3.90;2.13;;;;;;;22.62;41.22;100629.00;3590340;40;20289;-81
2021/07/26 06:57:37;;;;;;;3.33;2.13;;;;;;;22.68;41.42;100635.63;3593011;40;20390;-82
2021/07/26 07:00:06;;;;;;;3.38;2.03;;;;;;;22.74;41.42;100635.59;3590896;40;20118;-81
2021/07/26 07:02:35;;;;;;;4.60;2.03;;;;;;;22.82;41.49;100628.94;3597219;39;20053;-81
2021/07/26 07:05:04;;;;;;;3.97;1.90;;;;;;;22.88;41.50;100628.97;3580939;40;20065;-81
2021/07/26 07:07:32;;;;;;;3.08;1.83;;;;;;;22.96;41.44;100627.00;3575532;40;20134;-81
2021/07/26 07:10:01;;;;;;;3.03;1.80;;;;;;;23.08;40.99;100633.59;3590631;40;20118;-81
2021/07/26 07:12:29;;;;;;;3.03;1.73;;;;;;;23.13;41.13;100631.88;3573743;39;20043;-83
2021/07/26 07:15:01;;;;;;;3.63;1.98;;;;;;;23.26;40.48;100629.03;3581663;40;20059;-80
2021/07/26 07:17:29;;;;;;;3.10;1.92;;;;;;;23.29;40.31;100633.31;3585237;40;20293;-86
2021/07/26 07:20:04;;;;;;;3.28;2.10;;;;;;;23.41;40.12;100639.03;3582908;40;20416;-86
2021/07/26 07:22:32;;;;;;;3.10;1.75;;;;;;;23.45;39.81;100638.41;3578846;39;20372;-84
2021/07/26 07:25:01;;;;;;;3.45;1.90;;;;;;;23.49;39.50;100634.09;3581126;40;20406;-83
2021/07/26 07:27:29;;;;;;;3.45;1.73;;;;;;;23.51;39.28;100629.16;3565759;40;20409;-83
2021/07/26 07:30:16;;;;;;;3.33;1.73;;;;;;;23.54;39.25;100633.44;3567826;40;20070;-81
2021/07/26 07:32:45;;;;;;;3.10;1.80;;;;;;;23.53;38.93;100638.16;3543686;40;20053;-82
2021/07/26 07:35:14;;;;;;;4.85;1.98;;;;;;;23.55;38.64;100638.78;3568653;40;20030;-81
2021/07/26 07:37:42;;;;;;;3.25;1.83;;;;;;;23.52;38.94;100627.22;3559880;40;20053;-82
2021/07/26 07:40:11;;;;;;;4.30;2.05;;;;;;;23.53;38.97;100640.97;3568665;40;20052;-81
2021/07/26 07:42:39;;;;;;;3.40;1.83;;;;;;;23.50;38.55;100638.59;3559737;40;20044;-83
2021/07/26 07:45:09;;;;;;;3.10;1.80;;;;;;;23.50;38.88;100633.03;3560199;40;20038;-82
2021/07/26 07:47:38;;;;;;;2.92;1.85;;;;;;;23.49;38.94;100636.88;3559865;40;20046;-82
2021/07/26 07:50:07;;;;;;;3.83;2.03;;;;;;;23.49;39.17;100642.47;3560271;40;20030;-82
2021/07/26 07:52:36;;;;;;;3.13;1.85;;;;;;;23.51;38.67;100640.31;3567991;40;20418;-80
2021/07/26 07:55:05;;;;;;;3.88;1.60;;;;;;;23.51;38.71;100639.47;3568667;40;20376;-83
2021/07/26 07:57:35;;;;;;;4.75;1.75;;;;;;;23.52;38.80;100646.75;3554236;40;20035;-84
2021/07/26 08:00:04;;;;;;;2.95;1.77;;;;;;;23.54;38.71;100650.19;3568358;40;20034;-82
2021/07/26 08:02:34;;;;;;;3.42;1.70;;;;;;;23.55;38.64;100637.94;3550862;40;20390;-82
2021/07/26 08:05:02;;;;;;;3.33;1.80;;;;;;;23.55;38.36;100649.13;3568475;40;20119;-82
2021/07/26 08:07:30;;;;;;;3.70;1.65;;;;;;;23.54;37.96;100650.19;3568753;40;20063;-83
2021/07/26 08:09:59;;;;;;;4.07;2.08;;;;;;;23.54;38.45;100641.81;3590201;40;20029;-82
2021/07/26 08:12:28;;;;;;;3.83;1.83;;;;;;;23.49;38.21;100639.69;3576233;39;20069;-82
2021/07/26 08:14:56;;;;;;;3.53;1.83;;;;;;;23.49;38.26;100650.00;3579848;40;20370;-81
2021/07/26 08:17:24;;;;;;;3.53;2.30;;;;;;;23.49;38.14;100641.63;3578794;40;20047;-84
2021/07/26 08:19:52;;;;;;;3.30;2.00;;;;;;;23.49;38.79;100648.06;3580004;40;20029;-82
2021/07/26 08:22:20;;;;;;;3.40;2.00;;;;;;;23.54;38.79;100644.63;3578478;40;20045;-81
2021/07/26 08:24:49;;;;;;;3.67;2.15;;;;;;;23.57;38.73;100642.22;3579075;40;20026;-83
2021/07/26 08:27:18;;;;;;;3.55;2.05;;;;;;;23.64;38.47;100640.22;3579488;40;20048;-83
2021/07/26 08:29:46;;;;;;;3.47;2.00;;;;;;;23.71;38.61;100647.75;3580179;40;20356;-84
2021/07/26 08:32:14;;;;;;;3.28;2.15;;;;;;;23.78;38.70;100648.56;3578421;40;20138;-82
2021/07/26 08:34:43;;;;;;;3.50;2.05;;;;;;;23.85;38.30;100643.78;3581597;40;20035;-82
2021/07/26 08:37:11;;;;;;;4.05;2.25;;;;;;;23.92;38.08;100647.38;3578836;40;20398;-82
2021/07/26 08:39:39;;;;;;;3.78;2.67;;;;;;;23.97;38.19;100653.13;3579246;40;20052;-82
2021/07/26 08:42:07;;;;;;;3.53;2.38;;;;;;;24.03;37.52;100644.72;3579786;40;20057;-82
2021/07/26 08:44:37;;;;;;;3.88;2.25;;;;;;;24.10;37.59;100641.91;3579048;40;20033;-81
2021/07/26 08:47:05;;;;;;;4.57;2.13;;;;;;;24.11;37.37;100651.16;3578413;40;20084;-82
2021/07/26 08:49:35;;;;;;;4.13;2.08;;;;;;;24.15;37.32;100650.44;3579820;40;20037;-81
2021/07/26 08:52:04;;;;;;;3.47;1.90;;;;;;;24.18;37.35;100658.41;3578840;39;20039;-82
2021/07/26 08:54:36;;;;;;;4.30;1.98;;;;;;;24.24;37.39;100651.88;3582558;40;20064;-78
2021/07/26 08:57:05;;;;;;;3.20;2.00;;;;;;;24.23;37.40;100657.69;3588699;40;20060;-82
2021/07/26 08:59:33;;;;;;;3.67;2.00;;;;;;;24.28;37.08;100664.34;3592560;40;20380;-79
2021/07/26 09:02:04;;;;;;;3.17;1.90;;;;;;;24.34;36.95;100663.44;3588943;40;20052;-79
2021/07/26 09:04:32;;;;;;;2.92;1.98;;;;;;;24.35;36.92;100667.94;3587555;40;20041;-77
2021/07/26 09:07:05;;;;;;;4.15;2.30;;;;;;;24.42;36.28;100673.47;3585250;39;20045;-77
2021/07/26 09:09:44;;;;;;;3.05;1.98;;;;;;;24.44;36.21;100668.50;3583012;40;20035;-78
2021/07/26 09:12:13;;;;;;;3.03;1.83;;;;;;;24.42;36.68;100665.94;3583587;40;20060;-80
2021/07/26 09:14:45;;;;;;;3.70;2.00;;;;;;;24.48;36.17;100663.28;3586748;40;20032;-79
2021/07/26 09:17:14;;;;;;;;;;;;;;;24.16;37.06;100662.50;3589594;40;20044;-78
2021/07/26 09:19:59;;;;;;;3.53;1.92;;;;;;;24.44;36.21;100662.91;3589363;40;19962;-80
2021/07/26 09:22:29;;;;;;;3.83;1.92;;;;;;;24.48;36.44;100668.88;3590146;40;20060;-82
2021/07/26 09:25:14;;;;;;;2.80;1.80;;;;;;;24.51;35.51;100668.44;3590101;40;20076;-81
2021/07/26 09:28:03;;;;;;;4.13;2.00;;;;;;;24.52;35.69;100665.44;3590664;40;20048;-81
2021/07/26 09:30:49;;;;;;;3.20;2.00;;;;;;;24.55;35.82;100662.16;3577276;40;20094;-81
2021/07/26 09:33:35;;;;;;;2.70;1.90;;;;;;;24.52;36.07;100673.81;3567362;40;20022;-82
2021/07/26 09:36:13;;;;;;;3.08;2.08;;;;;;;24.59;36.21;100673.75;3578924;40;20053;-82
2021/07/26 09:38:43;;;;;;;2.53;1.77;;;;;;;24.61;36.27;100669.66;3580421;40;20077;-81
2021/07/26 09:41:11;;;;;;;3.30;1.98;;;;;;;24.66;36.47;100663.38;3580720;40;20055;-78
2021/07/26 09:43:39;;;;;;;3.50;2.00;;;;;;;24.71;36.23;100664.38;3589954;40;20329;-79
2021/07/26 09:46:07;;;;;;;4.00;1.60;;;;;;;24.76;36.49;100660.91;3594719;39;20075;-78
2021/07/26 09:48:37;;;;;;;2.80;1.90;;;;;;;24.86;36.13;100672.44;3587704;40;20138;-78
2021/07/26 09:51:24;;;;;;;3.38;1.70;;;;;;;24.92;36.20;100665.06;3591572;40;20369;-79
2021/07/26 09:53:52;;;;;;;3.10;1.90;;;;;;;25.00;35.82;100660.00;3591003;40;20137;-78
2021/07/26 09:56:21;;;;;;;2.97;1.85;;;;;;;25.09;36.26;100666.16;3590104;40;20040;-78
2021/07/26 09:58:48;;;;;;;2.40;1.55;;;;;;;25.18;35.95;100668.41;3590195;40;20032;-78
2021/07/26 10:01:17;;;;;;;3.65;1.73;;;;;;;25.31;35.71;100666.56;3576281;40;20080;-78
2021/07/26 10:03:48;;;;;;;3.22;1.85;;;;;;;25.41;35.47;100666.88;3589827;40;20052;-78
2021/07/26 10:06:18;;;;;;;2.70;1.88;;;;;;;25.49;35.27;100670.22;3583871;40;20067;-77
2021/07/26 10:08:49;;;;;;;2.85;1.65;;;;;;;25.55;34.42;100669.25;3584632;40;20091;-78
2021/07/26 10:11:18;;;;;;;3.55;1.80;;;;;;;25.58;34.68;100670.75;3589283;39;20299;-78
2021/07/26 10:13:47;;;;;;;3.47;1.75;;;;;;;25.64;34.32;100671.72;3587267;40;20075;-76
2021/07/26 10:16:16;;;;;;;2.83;1.65;;;;;;;25.67;34.02;100665.66;3581827;40;20073;-77
2021/07/26 10:18:45;;;;;;;3.20;1.75;;;;;;;25.69;34.68;100661.50;3586267;40;20048;-79
2021/07/26 10:21:19;;;;;;;2.75;1.90;;;;;;;25.76;33.20;100658.66;3583207;39;20044;-79
2021/07/26 10:23:54;;;;;;;2.97;1.70;;;;;;;25.77;33.49;100658.38;3585257;40;20033;-80
2021/07/26 10:26:33;;;;;;;2.58;1.83;;;;;;;25.80;33.76;100657.91;3567051;40;20053;-79
2021/07/26 10:29:02;;;;;;;2.85;1.67;;;;;;;25.81;33.62;100661.59;3591764;40;20039;-79
2021/07/26 10:31:35;;;;;;;2.90;1.70;;;;;;;25.86;33.38;100653.34;3583958;40;21513;-78
2021/07/26 10:34:06;;;;;;;3.22;1.80;;;;;;;25.84;33.31;100652.75;3582876;40;20068;-78
2021/07/26 10:36:59;;;;;;;2.58;1.70;;;;;;;25.84;33.25;100661.16;3582326;40;20055;-83
2021/07/26 10:39:28;;;;;;;3.20;1.70;;;;;;;25.80;33.21;100652.31;3586425;40;20118;-78
2021/07/26 10:42:04;;;;;;;3.05;1.75;;;;;;;25.82;32.53;100650.16;3593276;40;20049;-78
2021/07/26 10:44:47;;;;;;;3.47;2.00;;;;;;;25.79;32.54;100655.34;3585407;40;20053;-78
2021/07/26 10:47:19;;;;;;;3.25;1.90;;;;;;;25.77;32.65;100652.78;3584569;40;20305;-81
2021/07/26 10:50:09;;;;;;;3.38;1.70;;;;;;;25.71;32.71;100650.94;3584548;40;20061;-78
2021/07/26 10:52:46;;;;;;;2.65;1.50;;;;;;;25.72;32.70;100649.84;3589735;39;20045;-77
2021/07/26 10:55:48;;;;;;;2.47;1.50;;;;;;;25.68;32.54;100659.84;3588031;40;20067;-75
2021/07/26 10:59:01;;;;;;;2.45;1.60;;;;;;;25.61;33.10;100661.03;3577498;40;20037;-80
2021/07/26 11:01:56;;;;;;;2.45;1.50;;;;;;;25.65;32.92;100657.50;3574762;39;20091;-74
2021/07/26 11:04:42;;;;;;;2.72;1.70;;;;;;;25.64;33.00;100657.72;3589149;39;20118;-75
2021/07/26 11:07:12;;;;;;;2.65;1.63;;;;;;;25.63;33.24;100659.66;3585064;39;20073;-76
2021/07/26 11:09:43;;;;;;;2.80;1.73;;;;;;;25.66;33.02;100650.81;3592997;40;20439;-75
2021/07/26 11:12:11;;;;;;;2.85;1.77;;;;;;;25.66;32.97;100661.16;3590629;39;20059;-75
2021/07/26 11:14:40;;;;;;;3.92;1.80;;;;;;;25.66;33.01;100649.94;3590563;40;20145;-75
2021/07/26 11:17:10;;;;;;;2.63;1.80;;;;;;;25.67;32.94;100646.91;3570842;40;20087;-76
2021/07/26 11:19:54;;;;;;;4.15;1.55;;;;;;;25.69;32.56;100643.88;3587807;40;20040;-76
2021/07/26 11:22:59;;;;;;;3.47;1.85;;;;;;;25.65;32.79;100640.69;3586134;39;20393;-75
2021/07/26 11:25:29;;;;;;;3.05;1.85;;;;;;;25.64;32.87;100652.97;3584442;40;20384;-76
2021/07/26 11:27:57;;;;;;;2.80;1.73;;;;;;;25.64;32.87;100638.13;3586231;40;20125;-76
2021/07/26 11:30:26;;;;;;;2.63;1.65;;;;;;;25.67;32.96;100638.50;3585222;40;20076;-75
2021/07/26 11:32:54;;;;;;;3.20;1.73;;;;;;;25.68;33.21;100639.38;3586930;40;20058;-76
2021/07/26 11:35:31;;;;;;;3.50;1.83;;;;;;;25.75;32.82;100638.19;3586187;40;20401;-77
2021/07/26 11:38:05;;;;;;;4.13;1.98;;;;;;;25.79;32.96;100632.94;3587303;40;20039;-75
2021/07/26 11:40:35;;;;;;;3.58;2.13;;;;;;;25.85;33.08;100632.03;3586969;40;20040;-80